Terminal Aerodrome Forecast
Issued by NWS

Home | Current Version | Previous Version | Text Only | Print | Product List | Glossary On
Versions: 1 2 3 4 5 6 7 8 9 10 11 12 13 14 15
000
FTUS45 KSLC 181726
TAFEVW
TAF
KEVW 181726Z 1818/1918 24018G32KT P6SM FEW080 BKN110
     FM182000 24018G28KT P6SM VCSH SCT050 BKN070
     FM190300 30010KT P6SM VCSH SCT070 BKN100
     FM190800 20005KT P6SM SCT070 BKN120=

USA.gov is the U.S. government's official web portal to all federal, state and local government web resources and services.